createdAt,value
2019-04-23T00:00:10.275Z,4.70
2019-04-23T00:00:56.239Z,4.30
2019-04-23T00:01:55.570Z,4.40
2019-04-23T00:02:53.535Z,4.40
2019-04-23T00:03:53.422Z,4.80
2019-04-23T00:04:50.939Z,4.30
2019-04-23T00:05:59.923Z,4.50
2019-04-23T00:06:59.238Z,4.10
2019-04-23T00:07:58.269Z,4.30
2019-04-23T00:08:59.246Z,4.40
2019-04-23T00:10:01.290Z,4.50
2019-04-23T00:10:59.058Z,4.60
2019-04-23T00:11:54.374Z,4.30
2019-04-23T00:13:16.916Z,4.30
2019-04-23T00:14:02.824Z,4.70
2019-04-23T00:15:04.590Z,4.30
2019-04-23T00:15:58.708Z,4.20
2019-04-23T00:16:50.951Z,4.40
2019-04-23T00:17:50.248Z,4.70
2019-04-23T00:18:46.492Z,4.70
2019-04-23T00:20:00.954Z,4.30
2019-04-23T00:20:54.954Z,4.60
2019-04-23T00:21:55.035Z,4.10
2019-04-23T00:22:51.748Z,4.70
2019-04-23T00:23:57.101Z,4.70
2019-04-23T00:25:54.133Z,5.10
2019-04-23T00:26:51.153Z,4.90
2019-04-23T00:27:50.369Z,5.10
2019-04-23T00:29:56.473Z,4.80
2019-04-23T00:30:58.241Z,4.50
2019-04-23T00:31:56.187Z,5.10
2019-04-23T00:32:46.210Z,5.10
2019-04-23T00:33:52.709Z,4.80
2019-04-23T00:36:07.010Z,4.80
2019-04-23T00:36:58.547Z,5.10
2019-04-23T00:37:47.373Z,4.80
2019-04-23T00:38:54.267Z,4.80
2019-04-23T00:41:02.906Z,4.90
2019-04-23T00:41:50.862Z,4.50
2019-04-23T00:42:47.804Z,4.80
2019-04-23T00:43:50.972Z,4.90
2019-04-23T00:45:07.155Z,4.60
2019-04-23T00:46:49.971Z,5.20
2019-04-23T00:48:53.139Z,5.00
2019-04-23T00:49:51.169Z,4.70
2019-04-23T00:50:52.842Z,4.90
2019-04-23T00:52:04.221Z,4.60
2019-04-23T00:52:45.757Z,4.60
2019-04-23T00:53:43.947Z,4.50
2019-04-23T00:54:49.388Z,4.90
2019-04-23T00:55:47.687Z,4.50
2019-04-23T00:56:44.690Z,4.50
2019-04-23T00:57:48.485Z,4.60
2019-04-23T00:58:47.741Z,4.50
2019-04-23T00:59:53.769Z,4.70
2019-04-23T01:00:48.935Z,4.80
2019-04-23T01:01:52.855Z,4.70
2019-04-23T01:02:49.237Z,4.90
2019-04-23T01:03:45.377Z,5.20
2019-04-23T01:04:48.076Z,4.90
2019-04-23T01:05:58.877Z,5.00
2019-04-23T01:06:49.630Z,4.80
2019-04-23T01:07:45.867Z,5.00
2019-04-23T01:08:47.677Z,4.70
2019-04-23T01:09:45.876Z,4.40
2019-04-23T01:10:50.828Z,4.50
2019-04-23T01:11:46.707Z,5.00
2019-04-23T01:12:45.906Z,4.90
2019-04-23T01:13:49.203Z,4.50
2019-04-23T01:14:46.217Z,4.80
2019-04-23T01:15:45.913Z,4.90
2019-04-23T01:17:02.747Z,4.70
2019-04-23T01:18:53.275Z,5.10
2019-04-23T01:19:43.833Z,4.80
2019-04-23T01:20:44.544Z,5.00
2019-04-23T01:21:22.397Z,5.10
2019-04-23T01:22:21.591Z,5.50
2019-04-23T01:23:31.145Z,5.40
2019-04-23T01:24:25.999Z,5.00
2019-04-23T01:25:34.159Z,5.40
2019-04-23T01:26:42.105Z,5.30
2019-04-23T01:28:54.227Z,5.70
2019-04-23T01:29:50.647Z,5.10
2019-04-23T01:30:46.904Z,5.10
2019-04-23T01:31:47.548Z,5.00
2019-04-23T01:32:41.113Z,5.30
2019-04-23T01:33:51.748Z,5.10
2019-04-23T01:34:51.360Z,5.80
2019-04-23T01:35:55.198Z,6.70
2019-04-23T01:36:41.476Z,5.70
2019-04-23T01:37:46.720Z,5.60
2019-04-23T01:38:48.094Z,6.20
2019-04-23T01:39:44.136Z,5.80
2019-04-23T01:40:40.696Z,5.80
2019-04-23T01:41:50.797Z,5.80
2019-04-23T01:44:50.676Z,5.70
2019-04-23T01:45:43.446Z,6.00
2019-04-23T01:46:51.078Z,5.30
2019-04-23T01:47:47.178Z,5.60
2019-04-23T01:48:47.089Z,6.00
2019-04-23T01:49:53.691Z,5.90
2019-04-23T01:50:48.640Z,5.60
2019-04-23T01:51:46.672Z,5.40
2019-04-23T01:53:02.405Z,5.30
2019-04-23T01:53:45.768Z,5.50
2019-04-23T01:54:50.019Z,5.90
2019-04-23T01:56:45.835Z,5.70
2019-04-23T01:57:46.603Z,5.70
2019-04-23T01:58:59.243Z,5.50
2019-04-23T01:59:46.206Z,5.00
2019-04-23T02:00:40.761Z,5.80
2019-04-23T02:01:46.156Z,5.90
2019-04-23T02:02:51.041Z,5.20
2019-04-23T02:03:43.741Z,5.80
2019-04-23T02:04:44.562Z,5.00
2019-04-23T02:05:43.281Z,5.40
2019-04-23T02:06:39.178Z,5.60
2019-04-23T02:07:50.946Z,5.40
2019-04-23T02:08:42.026Z,5.30
2019-04-23T02:09:48.380Z,5.10
2019-04-23T02:10:58.211Z,5.10
2019-04-23T02:11:38.468Z,5.40
2019-04-23T02:12:47.675Z,5.50
2019-04-23T02:13:42.042Z,5.40
2019-04-23T02:14:41.611Z,5.00
2019-04-23T02:15:42.498Z,4.70
2019-04-23T02:17:50.012Z,4.50
2019-04-23T02:18:40.497Z,4.60
2019-04-23T02:19:45.816Z,4.50
2019-04-23T02:20:42.944Z,4.60
2019-04-23T02:21:35.278Z,4.90
2019-04-23T02:22:50.203Z,5.10
2019-04-23T02:24:41.406Z,5.00
2019-04-23T02:25:44.345Z,4.80
2019-04-23T02:26:39.897Z,4.70
2019-04-23T02:27:46.978Z,4.50
2019-04-23T02:28:46.381Z,5.10
2019-04-23T02:29:59.267Z,5.00
2019-04-23T02:31:03.822Z,4.70
2019-04-23T02:32:46.034Z,5.30
2019-04-23T02:34:51.258Z,6.10
2019-04-23T02:36:46.795Z,5.20
2019-04-23T02:37:53.755Z,5.80
2019-04-23T02:38:52.294Z,5.10
2019-04-23T02:39:51.956Z,5.40
2019-04-23T02:40:59.367Z,5.00
2019-04-23T02:42:07.342Z,4.80
2019-04-23T02:43:35.546Z,5.10
2019-04-23T02:44:39.339Z,4.80
2019-04-23T02:45:48.890Z,5.20
2019-04-23T02:46:40.974Z,4.90
2019-04-23T02:47:53.054Z,4.50
2019-04-23T02:48:44.237Z,5.10
2019-04-23T02:49:45.994Z,4.60
2019-04-23T02:50:54.154Z,4.90
2019-04-23T02:51:43.857Z,4.70
2019-04-23T02:52:49.787Z,4.70
2019-04-23T02:56:48.166Z,5.30
2019-04-23T02:58:43.797Z,4.40
2019-04-23T02:59:56.026Z,4.80
2019-04-23T03:00:55.776Z,4.60
2019-04-23T03:02:58.284Z,4.90
2019-04-23T03:04:40.063Z,4.60
2019-04-23T03:05:45.507Z,4.70
2019-04-23T03:06:47.704Z,5.10
2019-04-23T03:07:45.456Z,4.20
2019-04-23T03:08:49.271Z,5.10
2019-04-23T03:10:40.398Z,4.30
2019-04-23T03:11:41.650Z,4.40
2019-04-23T03:14:41.713Z,4.40
2019-04-23T03:15:57.908Z,4.50
2019-04-23T03:16:49.933Z,4.90
2019-04-23T03:17:51.883Z,4.40
2019-04-23T03:19:37.775Z,4.60
2019-04-23T03:21:07.475Z,4.70
2019-04-23T03:21:47.342Z,4.80
2019-04-23T03:22:46.008Z,4.40
2019-04-23T03:25:03.673Z,4.30
2019-04-23T03:25:34.016Z,4.20
2019-04-23T03:26:47.689Z,4.40
2019-04-23T03:31:21.137Z,4.50
2019-04-23T03:33:08.570Z,5.10
2019-04-23T03:34:04.154Z,4.70
2019-04-23T03:37:08.687Z,4.40
2019-04-23T03:38:48.855Z,4.70
2019-04-23T03:39:51.257Z,4.10
2019-04-23T03:41:02.403Z,4.10
2019-04-23T03:41:43.914Z,4.40
2019-04-23T03:42:47.094Z,4.10
2019-04-23T03:43:37.472Z,4.00
2019-04-23T03:44:40.088Z,3.10
2019-04-23T03:47:48.918Z,4.30
2019-04-23T03:48:42.124Z,4.50
2019-04-23T03:49:43.895Z,4.50
2019-04-23T03:51:38.270Z,4.70
2019-04-23T03:53:45.110Z,4.30
2019-04-23T03:56:44.546Z,4.00
2019-04-23T03:57:45.183Z,3.90
2019-04-23T03:58:39.485Z,3.60
2019-04-23T04:00:37.238Z,4.10
2019-04-23T04:02:50.471Z,4.20
2019-04-23T04:04:35.010Z,3.70
2019-04-23T04:05:42.524Z,3.60
2019-04-23T04:08:26.185Z,3.50
2019-04-23T04:09:38.556Z,3.30
2019-04-23T04:10:36.026Z,3.70
2019-04-23T04:11:25.566Z,3.90
2019-04-23T04:13:48.078Z,3.60
2019-04-23T04:16:34.306Z,4.30
2019-04-23T04:17:26.747Z,4.70
2019-04-23T04:18:38.593Z,5.00
2019-04-23T04:20:44.164Z,3.90
2019-04-23T04:22:44.061Z,3.70
2019-04-23T04:23:33.903Z,3.60
2019-04-23T04:24:37.828Z,3.60
2019-04-23T04:25:37.076Z,4.00
2019-04-23T04:26:44.341Z,3.90
2019-04-23T04:27:35.744Z,3.70
2019-04-23T04:29:44.420Z,3.30
2019-04-23T04:32:33.589Z,3.40
2019-04-23T04:33:36.892Z,3.50
2019-04-23T04:35:38.498Z,3.50
2019-04-23T04:39:33.494Z,3.80
2019-04-23T04:40:47.800Z,3.60
2019-04-23T04:42:27.491Z,2.80
2019-04-23T04:48:40.245Z,3.10
2019-04-23T04:49:36.399Z,3.40
2019-04-23T04:50:26.719Z,2.80
2019-04-23T04:53:58.209Z,2.90
2019-04-23T04:54:23.009Z,2.60
2019-04-23T04:55:28.383Z,2.70
2019-04-23T04:56:31.739Z,2.70
2019-04-23T04:59:23.891Z,2.50
2019-04-23T05:00:39.775Z,2.20
2019-04-23T05:01:25.985Z,2.50
2019-04-23T05:02:52.719Z,2.30
2019-04-23T05:03:23.990Z,2.30
2019-04-23T05:04:30.603Z,2.50
2019-04-23T05:05:55.390Z,2.50
2019-04-23T05:06:40.869Z,2.90
2019-04-23T05:08:28.176Z,2.60
2019-04-23T05:09:38.098Z,2.50
2019-04-23T05:10:32.513Z,2.40
2019-04-23T05:11:28.236Z,2.70
2019-04-23T05:12:25.506Z,2.50
2019-04-23T05:13:41.172Z,2.80
2019-04-23T05:14:43.990Z,3.60
2019-04-23T05:15:16.562Z,3.30
2019-04-23T05:16:24.253Z,3.30
2019-04-23T05:17:27.563Z,3.20
2019-04-23T05:18:23.549Z,2.90
2019-04-23T05:19:29.360Z,2.80
2019-04-23T05:20:21.113Z,2.70
2019-04-23T05:21:26.902Z,2.80
2019-04-23T05:22:22.532Z,3.00
2019-04-23T05:23:33.845Z,2.80
2019-04-23T05:25:17.652Z,3.20
2019-04-23T05:26:22.408Z,2.90
2019-04-23T05:27:21.672Z,2.80
2019-04-23T05:29:34.451Z,2.70
2019-04-23T05:31:20.292Z,2.80
2019-04-23T05:32:12.159Z,2.70
2019-04-23T05:33:18.611Z,2.50
2019-04-23T05:34:14.509Z,2.70
2019-04-23T05:35:26.151Z,2.40
2019-04-23T05:37:28.326Z,2.60
2019-04-23T05:39:26.865Z,2.40
2019-04-23T05:40:25.462Z,2.70
2019-04-23T05:41:29.844Z,2.80
2019-04-23T05:42:19.572Z,2.70
2019-04-23T05:43:32.473Z,2.80
2019-04-23T05:45:15.915Z,2.70
2019-04-23T05:46:21.849Z,2.40
2019-04-23T05:47:23.104Z,2.40
2019-04-23T05:48:17.505Z,2.60
2019-04-23T05:49:33.059Z,2.90
2019-04-23T05:50:17.443Z,2.80
2019-04-23T05:51:38.277Z,2.60
2019-04-23T05:52:37.688Z,3.00
2019-04-23T05:53:13.379Z,3.00
2019-04-23T05:55:16.906Z,2.60
2019-04-23T05:56:13.200Z,2.30
2019-04-23T05:57:09.957Z,2.90
2019-04-23T05:58:16.953Z,2.30
2019-04-23T05:59:17.652Z,2.40
2019-04-23T06:00:15.840Z,2.30
2019-04-23T06:01:32.464Z,2.40
2019-04-23T06:03:16.034Z,2.60
2019-04-23T06:05:19.708Z,2.30
2019-04-23T06:06:26.185Z,2.00
2019-04-23T06:07:22.111Z,2.30
2019-04-23T06:08:11.963Z,3.40
2019-04-23T06:09:14.415Z,3.10
2019-04-23T06:10:15.004Z,2.90
2019-04-23T06:11:11.924Z,3.10
2019-04-23T06:12:12.371Z,3.30
2019-04-23T06:13:12.338Z,3.60
2019-04-23T06:15:13.400Z,3.50
2019-04-23T06:16:16.594Z,3.60
2019-04-23T06:18:17.173Z,3.40
2019-04-23T06:19:14.136Z,3.00
2019-04-23T06:20:10.261Z,2.80
2019-04-23T06:21:10.056Z,3.20
2019-04-23T06:22:18.441Z,3.20
2019-04-23T06:23:20.924Z,2.80
2019-04-23T06:24:16.557Z,2.80
2019-04-23T06:25:21.520Z,2.60
2019-04-23T06:26:24.317Z,2.50
2019-04-23T06:27:13.301Z,2.60
2019-04-23T06:29:16.017Z,2.50
2019-04-23T06:30:08.374Z,2.50
2019-04-23T06:31:12.912Z,3.20
2019-04-23T06:32:06.373Z,3.50
2019-04-23T06:33:16.334Z,3.70
2019-04-23T06:34:14.241Z,3.30
2019-04-23T06:35:08.772Z,3.10
2019-04-23T06:36:28.003Z,3.40
2019-04-23T06:37:09.792Z,3.10
2019-04-23T06:38:32.977Z,2.90
2019-04-23T06:39:00.238Z,2.80
2019-04-23T06:40:08.320Z,2.90
2019-04-23T06:41:13.229Z,2.50
2019-04-23T06:42:05.969Z,2.50
2019-04-23T06:43:06.517Z,2.30
2019-04-23T06:44:14.532Z,2.00
2019-04-23T06:45:19.266Z,2.30
2019-04-23T06:46:04.882Z,2.40
2019-04-23T06:48:09.055Z,2.00
2019-04-23T06:49:09.200Z,2.30
2019-04-23T06:50:29.835Z,2.30
2019-04-23T06:51:12.826Z,2.50
2019-04-23T06:53:00.593Z,3.10
2019-04-23T06:54:04.864Z,3.20
2019-04-23T06:55:25.438Z,2.60
2019-04-23T06:56:13.108Z,2.20
2019-04-23T06:58:13.555Z,2.20
2019-04-23T06:59:07.641Z,2.10
2019-04-23T07:00:11.408Z,2.30
2019-04-23T07:01:04.885Z,2.70
2019-04-23T07:02:14.995Z,2.60
2019-04-23T07:03:09.157Z,2.70
2019-04-23T07:04:05.576Z,2.60
2019-04-23T07:05:14.534Z,2.20
2019-04-23T07:06:16.708Z,2.00
2019-04-23T07:07:31.037Z,1.50
2019-04-23T07:08:02.876Z,2.10
2019-04-23T07:09:57.960Z,2.00
2019-04-23T07:11:10.524Z,1.60
2019-04-23T07:12:05.232Z,1.30
2019-04-23T07:13:04.911Z,1.30
2019-04-23T07:15:11.642Z,2.20
2019-04-23T07:16:08.057Z,2.30
2019-04-23T07:17:04.143Z,2.50
2019-04-23T07:18:04.384Z,2.80
2019-04-23T07:20:00.270Z,2.40
2019-04-23T07:21:09.464Z,2.40
2019-04-23T07:22:08.232Z,2.00
2019-04-23T07:23:10.630Z,1.50
2019-04-23T07:24:08.554Z,1.50
2019-04-23T07:25:00.084Z,1.20
2019-04-23T07:26:08.075Z,1.20
2019-04-23T07:26:55.929Z,1.30
2019-04-23T07:28:07.119Z,1.50
2019-04-23T07:29:16.045Z,1.30
2019-04-23T07:31:07.759Z,1.10
2019-04-23T07:31:59.260Z,1.20
2019-04-23T07:33:04.190Z,1.90
2019-04-23T07:34:02.505Z,2.20
2019-04-23T07:35:13.708Z,2.10
2019-04-23T07:36:03.803Z,2.10
2019-04-23T07:37:03.399Z,1.90
2019-04-23T07:38:05.894Z,1.70
2019-04-23T07:39:14.309Z,1.50
2019-04-23T07:40:20.217Z,1.10
2019-04-23T07:41:12.496Z,1.10
2019-04-23T07:42:20.581Z,1.20
2019-04-23T07:43:03.258Z,1.10
2019-04-23T07:44:04.897Z,1.00
2019-04-23T07:45:06.104Z,1.30
2019-04-23T07:46:08.558Z,1.00
2019-04-23T07:47:11.777Z,1.20
2019-04-23T07:48:06.827Z,1.20
2019-04-23T07:48:56.407Z,1.20
2019-04-23T07:50:11.435Z,1.10
2019-04-23T07:50:52.017Z,0.90
2019-04-23T07:52:03.064Z,1.00
2019-04-23T07:53:07.116Z,1.20
2019-04-23T07:54:01.270Z,1.10
2019-04-23T07:55:02.513Z,1.10
2019-04-23T07:56:03.741Z,1.10
2019-04-23T07:57:02.878Z,1.30
2019-04-23T07:58:06.483Z,2.50
2019-04-23T07:58:58.329Z,3.10
2019-04-23T08:00:00.960Z,3.10
2019-04-23T08:01:09.708Z,2.70
2019-04-23T08:01:56.908Z,2.30
2019-04-23T08:03:08.562Z,2.60
2019-04-23T08:03:56.190Z,1.60
2019-04-23T08:05:58.456Z,1.00
2019-04-23T08:07:03.132Z,1.00
2019-04-23T08:07:55.853Z,0.80
2019-04-23T08:08:56.785Z,0.90
2019-04-23T08:11:21.952Z,2.30
2019-04-23T08:11:56.155Z,2.90
2019-04-23T08:13:04.245Z,2.10
2019-04-23T08:14:59.991Z,1.00
2019-04-23T08:15:57.258Z,1.40
2019-04-23T08:16:56.159Z,1.40
2019-04-23T08:17:58.581Z,1.30
2019-04-23T08:18:54.391Z,1.20
2019-04-23T08:20:57.159Z,0.90
2019-04-23T08:22:57.242Z,0.90
2019-04-23T08:24:02.249Z,1.60
2019-04-23T08:26:04.557Z,2.50
2019-04-23T08:26:55.187Z,2.50
2019-04-23T08:27:57.439Z,2.00
2019-04-23T08:29:03.621Z,0.90
2019-04-23T08:29:47.743Z,0.80
2019-04-23T08:30:56.785Z,0.80
2019-04-23T08:33:02.407Z,0.90
2019-04-23T08:33:56.889Z,1.30
2019-04-23T08:34:58.437Z,2.20
2019-04-23T08:35:57.763Z,2.60
2019-04-23T08:36:58.215Z,2.20
2019-04-23T08:38:07.887Z,1.20
2019-04-23T08:38:50.886Z,1.00
2019-04-23T08:39:46.934Z,0.90
2019-04-23T08:41:06.053Z,1.00
2019-04-23T08:43:00.897Z,0.90
2019-04-23T08:44:15.586Z,1.00
2019-04-23T08:45:05.341Z,1.00
2019-04-23T08:45:46.285Z,1.00
2019-04-23T08:47:06.864Z,1.00
2019-04-23T08:47:52.612Z,1.60
2019-04-23T08:48:57.507Z,2.30
2019-04-23T08:50:55.929Z,1.90
2019-04-23T08:53:00.155Z,1.20
2019-04-23T08:53:57.110Z,1.00
2019-04-23T08:56:05.099Z,1.10
2019-04-23T08:56:59.764Z,1.00
2019-04-23T08:57:45.230Z,0.80
2019-04-23T08:58:48.949Z,0.80
2019-04-23T08:59:47.343Z,0.80
2019-04-23T09:00:51.927Z,0.80
2019-04-23T09:02:07.629Z,0.80
2019-04-23T09:02:55.215Z,0.80
2019-04-23T09:03:47.876Z,0.90
2019-04-23T09:04:55.444Z,0.80
2019-04-23T09:05:52.645Z,0.80
2019-04-23T09:07:00.531Z,1.00
2019-04-23T09:09:10.431Z,0.90
2019-04-23T09:09:52.085Z,1.00
2019-04-23T09:10:56.693Z,1.00
2019-04-23T09:13:00.788Z,0.80
2019-04-23T09:14:52.391Z,1.00
2019-04-23T09:16:51.406Z,1.00
2019-04-23T09:17:57.923Z,1.00
2019-04-23T09:18:45.817Z,0.90
2019-04-23T09:20:05.255Z,1.00
2019-04-23T09:20:41.555Z,1.00
2019-04-23T09:21:50.542Z,1.40
2019-04-23T09:22:46.903Z,1.10
2019-04-23T09:23:59.151Z,1.10
2019-04-23T09:24:48.513Z,0.90
2019-04-23T09:25:49.917Z,1.00
2019-04-23T09:26:56.314Z,1.20
2019-04-23T09:27:48.170Z,2.40
2019-04-23T09:29:51.510Z,1.00
2019-04-23T09:30:51.304Z,0.80
2019-04-23T09:32:07.660Z,0.90
2019-04-23T09:32:47.614Z,1.00
2019-04-23T09:34:55.109Z,0.90
2019-04-23T09:35:46.798Z,1.00
2019-04-23T09:36:51.600Z,1.00
2019-04-23T09:37:48.725Z,0.90
2019-04-23T09:38:46.013Z,1.00
2019-04-23T09:39:49.773Z,1.00
2019-04-23T09:40:56.059Z,1.00
2019-04-23T09:41:37.836Z,1.00
2019-04-23T09:42:55.411Z,1.00
2019-04-23T09:43:48.567Z,1.00
2019-04-23T09:45:48.724Z,1.10
2019-04-23T09:46:49.620Z,1.00
2019-04-23T09:47:51.850Z,1.10
2019-04-23T09:48:54.622Z,1.00
2019-04-23T09:49:48.315Z,1.10
2019-04-23T09:50:48.980Z,0.90
2019-04-23T09:51:45.208Z,1.00
2019-04-23T09:52:57.641Z,0.90
2019-04-23T09:53:41.111Z,1.00
2019-04-23T09:54:49.606Z,1.00
2019-04-23T09:57:50.247Z,1.20
2019-04-23T09:58:42.753Z,1.00
2019-04-23T09:59:43.058Z,1.00
2019-04-23T10:00:42.827Z,1.00
2019-04-23T10:01:40.963Z,1.00
2019-04-23T10:02:35.391Z,1.10
2019-04-23T10:03:25.464Z,1.00
2019-04-23T10:04:32.005Z,1.10
2019-04-23T10:05:29.157Z,1.00
2019-04-23T10:06:22.716Z,1.10
2019-04-23T10:07:27.130Z,1.10
2019-04-23T10:08:23.143Z,1.00
2019-04-23T10:09:16.650Z,1.50
2019-04-23T10:10:16.355Z,5.80
2019-04-23T10:11:15.993Z,5.50
2019-04-23T10:12:14.788Z,1.30
2019-04-23T10:13:15.847Z,1.50
2019-04-23T10:14:14.774Z,5.10
2019-04-23T10:15:22.718Z,3.30
2019-04-23T10:16:17.121Z,1.70
2019-04-23T10:17:14.107Z,2.50
2019-04-23T10:18:14.315Z,4.30
2019-04-23T10:19:15.136Z,2.40
2019-04-23T10:20:13.723Z,1.30
2019-04-23T10:21:15.324Z,3.00
2019-04-23T10:22:13.482Z,1.20
2019-04-23T10:23:14.231Z,1.00
2019-04-23T10:24:14.921Z,1.70
2019-04-23T10:25:13.113Z,2.00
2019-04-23T10:26:14.246Z,1.40
2019-04-23T10:27:12.872Z,1.70
2019-04-23T10:28:14.482Z,1.00
2019-04-23T10:29:13.861Z,1.50
2019-04-23T10:30:14.353Z,1.10
2019-04-23T10:31:12.727Z,1.50
2019-04-23T10:32:13.546Z,1.20
2019-04-23T10:33:13.724Z,2.00
2019-04-23T10:34:12.271Z,4.30
2019-04-23T10:35:24.748Z,3.90
2019-04-23T10:36:15.831Z,1.90
2019-04-23T10:37:11.649Z,1.50
2019-04-23T10:38:14.831Z,1.40
2019-04-23T10:39:17.625Z,4.70
2019-04-23T10:40:17.235Z,2.00
2019-04-23T10:41:12.025Z,1.30
2019-04-23T10:42:11.971Z,0.90
2019-04-23T10:43:11.276Z,1.10
2019-04-23T10:44:11.094Z,0.90
2019-04-23T10:45:25.114Z,0.80
2019-04-23T10:46:35.135Z,1.00
2019-04-23T10:47:38.253Z,0.90
2019-04-23T10:49:51.050Z,0.90
2019-04-23T10:50:46.525Z,1.00
2019-04-23T10:51:51.645Z,0.90
2019-04-23T10:52:36.362Z,0.90
2019-04-23T10:53:37.902Z,1.00
2019-04-23T10:55:52.585Z,1.00
2019-04-23T10:56:41.083Z,0.90
2019-04-23T10:57:31.128Z,0.90
2019-04-23T10:58:35.352Z,0.80
2019-04-23T11:00:37.507Z,1.00
2019-04-23T11:01:45.225Z,1.00
2019-04-23T11:02:51.739Z,0.80
2019-04-23T11:03:51.600Z,0.90
2019-04-23T11:04:51.727Z,0.90
2019-04-23T11:06:41.376Z,0.90
2019-04-23T11:08:38.335Z,0.90
2019-04-23T11:10:37.717Z,0.90
2019-04-23T11:11:34.404Z,0.90
2019-04-23T11:14:43.254Z,0.90
2019-04-23T11:16:49.620Z,0.90
2019-04-23T11:17:43.219Z,0.90
2019-04-23T11:18:46.860Z,1.00
2019-04-23T11:19:44.347Z,1.10
2019-04-23T11:20:36.830Z,1.00
2019-04-23T11:21:34.572Z,1.10
2019-04-23T11:23:34.605Z,1.20
2019-04-23T11:25:35.999Z,1.10
2019-04-23T11:26:34.346Z,1.10
2019-04-23T11:27:39.143Z,0.90
2019-04-23T11:28:33.553Z,0.80
2019-04-23T11:29:34.298Z,0.90
2019-04-23T11:30:45.116Z,0.90
2019-04-23T11:31:44.920Z,0.90
2019-04-23T11:32:47.102Z,0.90
2019-04-23T11:33:50.890Z,0.80
2019-04-23T11:34:56.852Z,0.90
2019-04-23T11:35:39.740Z,1.00
2019-04-23T11:36:53.864Z,1.30
2019-04-23T11:37:42.685Z,1.30
2019-04-23T11:38:49.003Z,0.90
2019-04-23T11:39:39.625Z,0.90
2019-04-23T11:41:51.402Z,0.90
2019-04-23T11:42:39.032Z,0.80
2019-04-23T11:44:39.215Z,0.80
2019-04-23T11:45:41.690Z,0.70
2019-04-23T11:46:45.663Z,0.80
2019-04-23T11:51:05.793Z,0.80
2019-04-23T11:51:46.154Z,0.90
2019-04-23T11:52:51.588Z,0.80
2019-04-23T11:53:35.588Z,0.90
2019-04-23T11:54:31.005Z,1.10
2019-04-23T11:55:39.141Z,1.00
2019-04-23T11:56:53.715Z,0.90
2019-04-23T11:57:41.202Z,1.00
2019-04-23T11:59:36.200Z,2.10
2019-04-23T12:01:00.840Z,1.10
2019-04-23T12:01:42.795Z,0.90
2019-04-23T12:02:35.138Z,1.30
2019-04-23T12:03:28.693Z,1.00
2019-04-23T12:05:32.123Z,0.90
2019-04-23T12:06:36.669Z,1.40
2019-04-23T12:07:32.809Z,1.50
2019-04-23T12:08:38.167Z,1.40
2019-04-23T12:09:43.017Z,1.10
2019-04-23T12:10:44.462Z,1.30
2019-04-23T12:11:54.531Z,1.10
2019-04-23T12:12:31.261Z,1.20
2019-04-23T12:13:37.885Z,1.10
2019-04-23T12:14:37.108Z,1.10
2019-04-23T12:15:32.932Z,1.10
2019-04-23T12:16:27.974Z,1.10
2019-04-23T12:18:35.310Z,1.20
2019-04-23T12:19:52.100Z,1.30
2019-04-23T12:20:33.094Z,1.10
2019-04-23T12:21:27.824Z,1.20
2019-04-23T12:22:29.484Z,1.40
2019-04-23T12:23:40.630Z,2.60
2019-04-23T12:27:33.148Z,1.70
2019-04-23T12:28:29.943Z,1.50
2019-04-23T12:29:33.717Z,1.60
2019-04-23T12:30:34.226Z,1.60
2019-04-23T12:31:34.895Z,1.60
2019-04-23T12:33:42.560Z,1.60
2019-04-23T12:34:41.717Z,1.50
2019-04-23T12:35:22.446Z,1.70
2019-04-23T12:36:33.893Z,1.60
2019-04-23T12:37:33.485Z,1.70
2019-04-23T12:39:30.793Z,2.20
2019-04-23T12:41:28.313Z,2.00
2019-04-23T12:43:23.346Z,1.90
2019-04-23T12:44:34.841Z,1.80
2019-04-23T12:46:29.687Z,1.80
2019-04-23T12:47:37.696Z,2.00
2019-04-23T12:49:50.975Z,2.00
2019-04-23T12:51:38.078Z,1.80
2019-04-23T12:52:26.758Z,1.80
2019-04-23T12:53:33.610Z,2.10
2019-04-23T12:54:37.983Z,2.00
2019-04-23T12:55:27.775Z,1.90
2019-04-23T12:56:34.753Z,1.70
2019-04-23T12:57:30.850Z,1.90
2019-04-23T12:58:26.995Z,2.00
2019-04-23T12:59:23.663Z,2.10
2019-04-23T13:00:27.102Z,2.20
2019-04-23T13:01:22.655Z,2.40
2019-04-23T13:02:32.763Z,2.30
2019-04-23T13:03:34.170Z,2.60
2019-04-23T13:04:24.859Z,2.00
2019-04-23T13:05:28.918Z,2.10
2019-04-23T13:06:20.446Z,1.90
2019-04-23T13:07:26.090Z,2.30
2019-04-23T13:08:38.044Z,2.50
2019-04-23T13:09:39.971Z,2.40
2019-04-23T13:10:20.974Z,2.40
2019-04-23T13:11:34.550Z,1.90
2019-04-23T13:12:33.195Z,2.30
2019-04-23T13:13:37.456Z,2.20
2019-04-23T13:14:26.463Z,2.40
2019-04-23T13:15:22.527Z,2.60
2019-04-23T13:16:33.514Z,3.00
2019-04-23T13:17:32.979Z,2.50
2019-04-23T13:18:27.329Z,2.30
2019-04-23T13:19:32.849Z,2.30
2019-04-23T13:20:23.557Z,2.20
2019-04-23T13:21:40.986Z,2.60
2019-04-23T13:22:23.396Z,2.50
2019-04-23T13:24:18.088Z,2.20
2019-04-23T13:25:23.901Z,2.70
2019-04-23T13:26:08.953Z,2.80
2019-04-23T13:27:29.019Z,2.70
2019-04-23T13:28:23.533Z,2.40
2019-04-23T13:29:27.233Z,2.50
2019-04-23T13:30:24.529Z,3.10
2019-04-23T13:31:17.847Z,2.90
2019-04-23T13:32:20.517Z,2.80
2019-04-23T13:33:31.987Z,2.70
2019-04-23T13:34:23.977Z,3.00
2019-04-23T13:35:38.337Z,3.00
2019-04-23T13:37:20.118Z,2.90
2019-04-23T13:39:18.457Z,2.80
2019-04-23T13:40:24.492Z,2.50
2019-04-23T13:41:20.133Z,2.80
2019-04-23T13:42:22.950Z,3.70
2019-04-23T13:44:17.487Z,2.90
2019-04-23T13:45:33.298Z,2.70
2019-04-23T13:46:33.143Z,3.20
2019-04-23T13:47:30.441Z,3.40
2019-04-23T13:48:16.691Z,3.50
2019-04-23T13:49:16.377Z,3.10
2019-04-23T13:50:35.579Z,3.50
2019-04-23T13:52:43.046Z,3.30
2019-04-23T13:53:29.137Z,3.40
2019-04-23T13:55:09.079Z,4.10
2019-04-23T13:57:46.558Z,3.10
2019-04-23T13:58:27.359Z,4.00
2019-04-23T14:00:21.190Z,3.20
2019-04-23T14:02:24.077Z,3.70
2019-04-23T14:03:26.308Z,3.10
2019-04-23T14:04:24.072Z,3.40
2019-04-23T14:05:13.070Z,3.70
2019-04-23T14:06:24.481Z,3.40
2019-04-23T14:07:25.125Z,3.30
2019-04-23T14:08:29.141Z,3.30
2019-04-23T14:09:28.143Z,3.80
2019-04-23T14:10:18.240Z,3.60
2019-04-23T14:12:17.616Z,3.10
2019-04-23T14:14:21.948Z,3.50
2019-04-23T14:15:19.779Z,3.60
2019-04-23T14:16:22.811Z,3.90
2019-04-23T14:17:26.965Z,3.80
2019-04-23T14:18:48.455Z,3.70
2019-04-23T14:19:06.766Z,3.60
2019-04-23T14:20:15.324Z,3.30
2019-04-23T14:21:20.381Z,3.80
2019-04-23T14:22:31.263Z,3.90
2019-04-23T14:23:10.726Z,3.40
2019-04-23T14:24:16.715Z,3.30
2019-04-23T14:25:10.033Z,3.30
2019-04-23T14:27:14.280Z,3.90
2019-04-23T14:29:04.249Z,3.20
2019-04-23T14:32:17.186Z,4.60
2019-04-23T14:33:17.666Z,4.00
2019-04-23T14:34:12.850Z,4.30
2019-04-23T14:35:18.352Z,4.10
2019-04-23T14:36:17.318Z,4.50
2019-04-23T14:37:12.783Z,4.80
2019-04-23T14:39:10.054Z,3.80
2019-04-23T14:40:15.306Z,3.20
2019-04-23T14:41:21.284Z,4.20
2019-04-23T14:42:20.676Z,3.70
2019-04-23T14:43:14.999Z,3.70
2019-04-23T14:44:16.024Z,3.20
2019-04-23T14:45:20.953Z,4.10
2019-04-23T14:47:16.835Z,3.50
2019-04-23T14:51:18.290Z,4.20
2019-04-23T14:52:14.556Z,4.30
2019-04-23T14:54:04.807Z,3.50
2019-04-23T14:55:42.601Z,3.50
2019-04-23T14:56:13.256Z,3.60
2019-04-23T14:58:17.501Z,4.20
2019-04-23T14:59:07.115Z,4.50
2019-04-23T15:00:07.377Z,5.10
2019-04-23T15:02:13.205Z,4.30
2019-04-23T15:03:26.762Z,4.10
2019-04-23T15:04:05.656Z,3.10
2019-04-23T15:05:15.330Z,2.80
2019-04-23T15:08:06.248Z,2.60
2019-04-23T15:09:14.374Z,3.00
2019-04-23T15:10:24.566Z,2.90
2019-04-23T15:11:24.710Z,2.30
2019-04-23T15:12:16.077Z,2.30
2019-04-23T15:13:12.619Z,2.70
2019-04-23T15:14:11.931Z,2.40
2019-04-23T15:16:20.503Z,2.90
2019-04-23T15:17:05.779Z,2.70
2019-04-23T15:18:13.750Z,2.10
2019-04-23T15:19:26.012Z,2.50
2019-04-23T15:20:03.473Z,2.30
2019-04-23T15:21:31.437Z,2.40
2019-04-23T15:22:07.774Z,2.60
2019-04-23T15:25:21.592Z,2.10
2019-04-23T15:27:04.066Z,2.10
2019-04-23T15:28:44.860Z,2.20
2019-04-23T15:29:55.371Z,2.20
2019-04-23T15:31:10.007Z,2.20
2019-04-23T15:35:18.143Z,2.00
2019-04-23T15:36:23.893Z,1.70
2019-04-23T15:37:23.771Z,2.10
2019-04-23T15:39:15.433Z,2.20
2019-04-23T15:40:08.200Z,2.20
2019-04-23T15:41:07.338Z,1.90
2019-04-23T15:43:09.184Z,2.00
2019-04-23T15:44:13.282Z,1.50
2019-04-23T15:45:04.498Z,1.80
2019-04-23T15:46:12.977Z,2.20
2019-04-23T15:47:01.870Z,2.20
2019-04-23T15:48:07.975Z,1.70
2019-04-23T15:50:10.980Z,1.80
2019-04-23T15:51:17.659Z,1.90
2019-04-23T15:52:06.681Z,1.70
2019-04-23T15:54:02.860Z,1.90
2019-04-23T15:55:01.534Z,2.00
2019-04-23T15:56:13.881Z,1.80
2019-04-23T15:57:01.228Z,2.20
2019-04-23T15:58:09.285Z,1.90
2019-04-23T15:59:13.570Z,1.90
2019-04-23T16:00:01.701Z,1.70
2019-04-23T16:01:12.519Z,1.30
2019-04-23T16:01:41.997Z,1.70
2019-04-23T16:02:32.251Z,1.30
2019-04-23T16:03:33.853Z,2.00
2019-04-23T16:04:32.004Z,1.40
2019-04-23T16:05:32.033Z,1.30
2019-04-23T16:06:34.503Z,1.50
2019-04-23T16:07:51.899Z,1.50
2019-04-23T16:10:04.320Z,1.40
2019-04-23T16:11:04.966Z,1.70